sensor_id;sensor_type;location;lat;lon;timestamp;P1;durP1;ratioP1;P2;durP2;ratioP2
21519;SDS011;10921;53.614;9.882;2023-08-17T00:00:22;11.93;;;9.05;;
21519;SDS011;10921;53.614;9.882;2023-08-17T00:02:49;12.32;;;8.60;;
21519;SDS011;10921;53.614;9.882;2023-08-17T00:05:15;12.35;;;8.90;;
21519;SDS011;10921;53.614;9.882;2023-08-17T00:07:42;11.95;;;8.98;;
21519;SDS011;10921;53.614;9.882;2023-08-17T00:10:08;13.05;;;9.13;;
21519;SDS011;10921;53.614;9.882;2023-08-17T00:12:35;9.95;;;8.95;;
21519;SDS011;10921;53.614;9.882;2023-08-17T00:15:02;13.13;;;9.02;;
21519;SDS011;10921;53.614;9.882;2023-08-17T00:17:29;14.82;;;9.20;;
21519;SDS011;10921;53.614;9.882;2023-08-17T00:19:56;18.92;;;9.25;;
21519;SDS011;10921;53.614;9.882;2023-08-17T00:22:23;15.38;;;8.88;;
21519;SDS011;10921;53.614;9.882;2023-08-17T00:24:49;11.05;;;9.68;;
21519;SDS011;10921;53.614;9.882;2023-08-17T00:27:16;14.32;;;9.10;;
21519;SDS011;10921;53.614;9.882;2023-08-17T00:29:42;16.58;;;9.05;;
21519;SDS011;10921;53.614;9.882;2023-08-17T00:32:09;14.88;;;8.82;;
21519;SDS011;10921;53.614;9.882;2023-08-17T00:34:44;15.07;;;9.50;;
21519;SDS011;10921;53.614;9.882;2023-08-17T00:37:10;11.40;;;9.00;;
21519;SDS011;10921;53.614;9.882;2023-08-17T00:39:37;11.60;;;9.13;;
21519;SDS011;10921;53.614;9.882;2023-08-17T00:42:03;13.23;;;9.50;;
21519;SDS011;10921;53.614;9.882;2023-08-17T00:44:30;10.35;;;9.30;;
21519;SDS011;10921;53.614;9.882;2023-08-17T00:46:57;11.82;;;8.80;;
21519;SDS011;10921;53.614;9.882;2023-08-17T00:49:23;11.73;;;9.00;;
21519;SDS011;10921;53.614;9.882;2023-08-17T00:51:50;10.52;;;9.40;;
21519;SDS011;10921;53.614;9.882;2023-08-17T00:54:19;15.00;;;10.27;;
21519;SDS011;10921;53.614;9.882;2023-08-17T00:56:50;11.23;;;9.55;;
21519;SDS011;10921;53.614;9.882;2023-08-17T00:59:18;9.95;;;9.00;;
21519;SDS011;10921;53.614;9.882;2023-08-17T01:01:45;11.80;;;9.23;;
21519;SDS011;10921;53.614;9.882;2023-08-17T01:04:13;12.30;;;9.57;;
21519;SDS011;10921;53.614;9.882;2023-08-17T01:06:40;10.80;;;9.40;;
21519;SDS011;10921;53.614;9.882;2023-08-17T01:09:06;13.07;;;9.65;;
21519;SDS011;10921;53.614;9.882;2023-08-17T01:11:41;10.90;;;9.63;;
21519;SDS011;10921;53.614;9.882;2023-08-17T01:15:00;15.97;;;10.43;;
21519;SDS011;10921;53.614;9.882;2023-08-17T01:17:15;15.80;;;9.88;;
21519;SDS011;10921;53.614;9.882;2023-08-17T01:19:49;13.98;;;9.88;;
21519;SDS011;10921;53.614;9.882;2023-08-17T01:22:17;13.23;;;10.02;;
21519;SDS011;10921;53.614;9.882;2023-08-17T01:24:47;10.80;;;9.80;;
21519;SDS011;10921;53.614;9.882;2023-08-17T01:27:13;12.55;;;9.73;;
21519;SDS011;10921;53.614;9.882;2023-08-17T01:29:39;13.50;;;10.18;;
21519;SDS011;10921;53.614;9.882;2023-08-17T01:32:12;14.63;;;9.95;;
21519;SDS011;10921;53.614;9.882;2023-08-17T01:34:44;13.25;;;9.40;;
21519;SDS011;10921;53.614;9.882;2023-08-17T01:37:17;11.10;;;9.93;;
21519;SDS011;10921;53.614;9.882;2023-08-17T01:39:48;14.15;;;9.80;;
21519;SDS011;10921;53.614;9.882;2023-08-17T01:42:18;10.35;;;9.30;;
21519;SDS011;10921;53.614;9.882;2023-08-17T01:44:46;11.05;;;9.82;;
21519;SDS011;10921;53.614;9.882;2023-08-17T01:47:12;11.93;;;10.60;;
21519;SDS011;10921;53.614;9.882;2023-08-17T01:49:39;13.60;;;10.57;;
21519;SDS011;10921;53.614;9.882;2023-08-17T01:52:06;17.27;;;10.38;;
21519;SDS011;10921;53.614;9.882;2023-08-17T01:54:32;16.45;;;10.02;;
21519;SDS011;10921;53.614;9.882;2023-08-17T01:56:59;14.55;;;10.13;;
21519;SDS011;10921;53.614;9.882;2023-08-17T01:59:25;14.98;;;10.20;;
21519;SDS011;10921;53.614;9.882;2023-08-17T02:01:52;10.50;;;9.32;;
21519;SDS011;10921;53.614;9.882;2023-08-17T02:04:18;11.38;;;9.93;;
21519;SDS011;10921;53.614;9.882;2023-08-17T02:06:45;11.35;;;9.18;;
21519;SDS011;10921;53.614;9.882;2023-08-17T02:09:11;12.70;;;9.80;;
21519;SDS011;10921;53.614;9.882;2023-08-17T02:11:38;10.27;;;9.32;;
21519;SDS011;10921;53.614;9.882;2023-08-17T02:14:04;10.68;;;9.60;;
21519;SDS011;10921;53.614;9.882;2023-08-17T02:16:31;10.13;;;9.20;;
21519;SDS011;10921;53.614;9.882;2023-08-17T02:18:57;10.27;;;9.27;;
21519;SDS011;10921;53.614;9.882;2023-08-17T02:21:24;15.57;;;9.32;;
21519;SDS011;10921;53.614;9.882;2023-08-17T02:23:50;10.80;;;9.73;;
21519;SDS011;10921;53.614;9.882;2023-08-17T02:26:17;15.77;;;9.80;;
21519;SDS011;10921;53.614;9.882;2023-08-17T02:28:43;12.95;;;9.40;;
21519;SDS011;10921;53.614;9.882;2023-08-17T02:31:10;10.50;;;9.48;;
21519;SDS011;10921;53.614;9.882;2023-08-17T02:33:36;11.52;;;9.35;;
21519;SDS011;10921;53.614;9.882;2023-08-17T02:36:03;13.63;;;9.85;;
21519;SDS011;10921;53.614;9.882;2023-08-17T02:38:30;13.98;;;9.63;;
21519;SDS011;10921;53.614;9.882;2023-08-17T02:40:56;10.48;;;9.38;;
21519;SDS011;10921;53.614;9.882;2023-08-17T02:43:23;10.88;;;9.25;;
21519;SDS011;10921;53.614;9.882;2023-08-17T02:45:49;10.18;;;9.15;;
21519;SDS011;10921;53.614;9.882;2023-08-17T02:48:16;9.38;;;8.57;;
21519;SDS011;10921;53.614;9.882;2023-08-17T02:50:42;10.63;;;9.23;;
21519;SDS011;10921;53.614;9.882;2023-08-17T02:53:09;16.65;;;9.23;;
21519;SDS011;10921;53.614;9.882;2023-08-17T02:55:35;10.25;;;9.35;;
21519;SDS011;10921;53.614;9.882;2023-08-17T02:58:02;13.82;;;9.63;;
21519;SDS011;10921;53.614;9.882;2023-08-17T03:00:29;11.15;;;9.77;;
21519;SDS011;10921;53.614;9.882;2023-08-17T03:02:55;10.20;;;9.30;;
21519;SDS011;10921;53.614;9.882;2023-08-17T03:05:22;10.73;;;9.70;;
21519;SDS011;10921;53.614;9.882;2023-08-17T03:07:49;11.93;;;9.52;;
21519;SDS011;10921;53.614;9.882;2023-08-17T03:10:15;10.35;;;9.40;;
21519;SDS011;10921;53.614;9.882;2023-08-17T03:12:42;10.70;;;9.57;;
21519;SDS011;10921;53.614;9.882;2023-08-17T03:15:09;10.05;;;9.32;;
21519;SDS011;10921;53.614;9.882;2023-08-17T03:17:36;13.70;;;9.40;;
21519;SDS011;10921;53.614;9.882;2023-08-17T03:20:02;10.45;;;9.32;;
21519;SDS011;10921;53.614;9.882;2023-08-17T03:22:32;13.23;;;9.80;;
21519;SDS011;10921;53.614;9.882;2023-08-17T03:24:59;12.55;;;11.48;;
21519;SDS011;10921;53.614;9.882;2023-08-17T03:27:25;13.38;;;12.00;;
21519;SDS011;10921;53.614;9.882;2023-08-17T03:29:53;13.32;;;12.15;;
21519;SDS011;10921;53.614;9.882;2023-08-17T03:32:19;13.38;;;12.05;;
21519;SDS011;10921;53.614;9.882;2023-08-17T03:34:46;14.73;;;12.13;;
21519;SDS011;10921;53.614;9.882;2023-08-17T03:37:12;13.05;;;11.68;;
21519;SDS011;10921;53.614;9.882;2023-08-17T03:39:39;13.38;;;12.18;;
21519;SDS011;10921;53.614;9.882;2023-08-17T03:42:05;13.25;;;12.05;;
21519;SDS011;10921;53.614;9.882;2023-08-17T03:44:32;13.32;;;11.93;;
21519;SDS011;10921;53.614;9.882;2023-08-17T03:46:58;13.18;;;11.90;;
21519;SDS011;10921;53.614;9.882;2023-08-17T03:49:25;12.75;;;11.75;;
21519;SDS011;10921;53.614;9.882;2023-08-17T03:51:51;13.13;;;11.82;;
21519;SDS011;10921;53.614;9.882;2023-08-17T03:54:18;12.95;;;11.75;;
21519;SDS011;10921;53.614;9.882;2023-08-17T03:56:47;14.32;;;12.40;;
21519;SDS011;10921;53.614;9.882;2023-08-17T03:59:14;16.05;;;10.57;;
21519;SDS011;10921;53.614;9.882;2023-08-17T04:01:40;11.05;;;9.95;;
21519;SDS011;10921;53.614;9.882;2023-08-17T04:04:07;11.57;;;9.63;;
21519;SDS011;10921;53.614;9.882;2023-08-17T04:06:34;11.65;;;10.30;;
21519;SDS011;10921;53.614;9.882;2023-08-17T04:09:00;16.15;;;10.38;;
21519;SDS011;10921;53.614;9.882;2023-08-17T04:11:27;11.10;;;10.20;;
21519;SDS011;10921;53.614;9.882;2023-08-17T04:13:54;13.70;;;10.13;;
21519;SDS011;10921;53.614;9.882;2023-08-17T04:16:20;10.35;;;9.50;;
21519;SDS011;10921;53.614;9.882;2023-08-17T04:18:47;13.32;;;9.77;;
21519;SDS011;10921;53.614;9.882;2023-08-17T04:21:13;12.52;;;10.40;;
21519;SDS011;10921;53.614;9.882;2023-08-17T04:23:40;11.15;;;9.95;;
21519;SDS011;10921;53.614;9.882;2023-08-17T04:26:06;11.75;;;9.98;;
21519;SDS011;10921;53.614;9.882;2023-08-17T04:28:32;11.20;;;9.45;;
21519;SDS011;10921;53.614;9.882;2023-08-17T04:30:59;10.48;;;9.57;;
21519;SDS011;10921;53.614;9.882;2023-08-17T04:33:26;12.13;;;10.23;;
21519;SDS011;10921;53.614;9.882;2023-08-17T04:35:52;18.90;;;10.88;;
21519;SDS011;10921;53.614;9.882;2023-08-17T04:38:19;17.85;;;10.75;;
21519;SDS011;10921;53.614;9.882;2023-08-17T04:40:45;15.55;;;11.40;;
21519;SDS011;10921;53.614;9.882;2023-08-17T04:43:12;14.23;;;11.45;;
21519;SDS011;10921;53.614;9.882;2023-08-17T04:45:38;13.57;;;10.88;;
21519;SDS011;10921;53.614;9.882;2023-08-17T04:48:05;15.15;;;10.80;;
21519;SDS011;10921;53.614;9.882;2023-08-17T04:50:32;12.95;;;10.88;;
21519;SDS011;10921;53.614;9.882;2023-08-17T04:52:59;11.50;;;10.45;;
21519;SDS011;10921;53.614;9.882;2023-08-17T04:55:26;14.20;;;11.10;;
21519;SDS011;10921;53.614;9.882;2023-08-17T04:57:52;12.50;;;11.27;;
21519;SDS011;10921;53.614;9.882;2023-08-17T05:00:19;15.35;;;11.70;;
21519;SDS011;10921;53.614;9.882;2023-08-17T05:02:51;16.67;;;12.40;;
21519;SDS011;10921;53.614;9.882;2023-08-17T05:05:18;13.05;;;11.75;;
21519;SDS011;10921;53.614;9.882;2023-08-17T05:07:44;15.25;;;13.35;;
21519;SDS011;10921;53.614;9.882;2023-08-17T05:10:11;15.50;;;13.90;;
21519;SDS011;10921;53.614;9.882;2023-08-17T05:12:37;18.90;;;17.08;;
21519;SDS011;10921;53.614;9.882;2023-08-17T05:15:04;19.08;;;17.10;;
21519;SDS011;10921;53.614;9.882;2023-08-17T05:17:31;17.90;;;16.50;;
21519;SDS011;10921;53.614;9.882;2023-08-17T05:19:57;19.77;;;17.50;;
21519;SDS011;10921;53.614;9.882;2023-08-17T05:22:24;20.05;;;18.08;;
21519;SDS011;10921;53.614;9.882;2023-08-17T05:24:50;23.20;;;21.38;;
21519;SDS011;10921;53.614;9.882;2023-08-17T05:27:17;31.63;;;28.45;;
21519;SDS011;10921;53.614;9.882;2023-08-17T05:29:44;33.88;;;30.27;;
21519;SDS011;10921;53.614;9.882;2023-08-17T05:32:10;36.10;;;32.40;;
21519;SDS011;10921;53.614;9.882;2023-08-17T05:34:37;36.80;;;33.10;;
21519;SDS011;10921;53.614;9.882;2023-08-17T05:37:03;38.80;;;34.03;;
21519;SDS011;10921;53.614;9.882;2023-08-17T05:39:30;37.50;;;33.60;;
21519;SDS011;10921;53.614;9.882;2023-08-17T05:41:58;42.88;;;34.15;;
21519;SDS011;10921;53.614;9.882;2023-08-17T05:44:25;40.42;;;34.20;;
21519;SDS011;10921;53.614;9.882;2023-08-17T05:46:51;39.63;;;34.03;;
21519;SDS011;10921;53.614;9.882;2023-08-17T05:49:18;37.40;;;33.38;;
21519;SDS011;10921;53.614;9.882;2023-08-17T05:51:44;38.22;;;33.83;;
21519;SDS011;10921;53.614;9.882;2023-08-17T05:54:11;42.08;;;33.50;;
21519;SDS011;10921;53.614;9.882;2023-08-17T05:56:37;37.45;;;33.38;;
21519;SDS011;10921;53.614;9.882;2023-08-17T05:59:04;39.17;;;33.75;;
21519;SDS011;10921;53.614;9.882;2023-08-17T06:01:31;37.55;;;33.22;;
21519;SDS011;10921;53.614;9.882;2023-08-17T06:03:57;42.30;;;33.88;;
21519;SDS011;10921;53.614;9.882;2023-08-17T06:06:24;39.53;;;34.42;;
21519;SDS011;10921;53.614;9.882;2023-08-17T06:08:52;39.28;;;34.40;;
21519;SDS011;10921;53.614;9.882;2023-08-17T06:11:19;38.90;;;34.70;;
21519;SDS011;10921;53.614;9.882;2023-08-17T06:13:45;38.03;;;34.00;;
21519;SDS011;10921;53.614;9.882;2023-08-17T06:16:12;38.38;;;34.42;;
21519;SDS011;10921;53.614;9.882;2023-08-17T06:18:38;37.67;;;34.05;;
21519;SDS011;10921;53.614;9.882;2023-08-17T06:21:05;40.28;;;35.83;;
21519;SDS011;10921;53.614;9.882;2023-08-17T06:23:31;44.25;;;36.05;;
21519;SDS011;10921;53.614;9.882;2023-08-17T06:25:58;40.75;;;36.63;;
21519;SDS011;10921;53.614;9.882;2023-08-17T06:28:26;39.83;;;35.53;;
21519;SDS011;10921;53.614;9.882;2023-08-17T06:30:53;39.47;;;35.33;;
21519;SDS011;10921;53.614;9.882;2023-08-17T06:33:21;43.67;;;35.33;;
21519;SDS011;10921;53.614;9.882;2023-08-17T06:35:48;39.35;;;35.45;;
21519;SDS011;10921;53.614;9.882;2023-08-17T06:38:15;40.28;;;35.97;;
21519;SDS011;10921;53.614;9.882;2023-08-17T06:40:42;39.20;;;35.15;;
21519;SDS011;10921;53.614;9.882;2023-08-17T06:43:08;39.08;;;35.05;;
21519;SDS011;10921;53.614;9.882;2023-08-17T06:45:35;39.20;;;35.08;;
21519;SDS011;10921;53.614;9.882;2023-08-17T06:48:02;42.67;;;35.50;;
21519;SDS011;10921;53.614;9.882;2023-08-17T06:50:28;41.33;;;35.47;;
21519;SDS011;10921;53.614;9.882;2023-08-17T06:52:55;39.88;;;35.55;;
21519;SDS011;10921;53.614;9.882;2023-08-17T06:55:21;40.08;;;35.75;;
21519;SDS011;10921;53.614;9.882;2023-08-17T06:57:48;40.08;;;35.97;;
21519;SDS011;10921;53.614;9.882;2023-08-17T07:00:18;39.40;;;35.30;;
21519;SDS011;10921;53.614;9.882;2023-08-17T07:02:48;39.38;;;35.30;;
21519;SDS011;10921;53.614;9.882;2023-08-17T07:05:21;39.75;;;35.40;;
21519;SDS011;10921;53.614;9.882;2023-08-17T07:07:47;38.85;;;34.75;;
21519;SDS011;10921;53.614;9.882;2023-08-17T07:10:14;40.95;;;36.08;;
21519;SDS011;10921;53.614;9.882;2023-08-17T07:12:41;39.85;;;35.75;;
21519;SDS011;10921;53.614;9.882;2023-08-17T07:15:07;39.20;;;35.40;;
21519;SDS011;10921;53.614;9.882;2023-08-17T07:17:34;40.40;;;36.20;;
21519;SDS011;10921;53.614;9.882;2023-08-17T07:20:03;39.42;;;34.85;;
21519;SDS011;10921;53.614;9.882;2023-08-17T07:22:33;39.53;;;35.13;;
21519;SDS011;10921;53.614;9.882;2023-08-17T07:24:59;39.50;;;35.38;;
21519;SDS011;10921;53.614;9.882;2023-08-17T07:27:26;39.22;;;35.13;;
21519;SDS011;10921;53.614;9.882;2023-08-17T07:29:53;38.60;;;34.63;;
21519;SDS011;10921;53.614;9.882;2023-08-17T07:32:19;39.80;;;35.67;;
21519;SDS011;10921;53.614;9.882;2023-08-17T07:34:47;39.15;;;35.17;;
21519;SDS011;10921;53.614;9.882;2023-08-17T07:37:14;39.72;;;35.92;;
21519;SDS011;10921;53.614;9.882;2023-08-17T07:39:41;39.53;;;35.38;;
21519;SDS011;10921;53.614;9.882;2023-08-17T07:42:08;40.33;;;36.30;;
21519;SDS011;10921;53.614;9.882;2023-08-17T07:44:35;39.63;;;35.80;;
21519;SDS011;10921;53.614;9.882;2023-08-17T07:47:01;44.80;;;35.15;;
21519;SDS011;10921;53.614;9.882;2023-08-17T07:49:28;39.92;;;35.65;;
21519;SDS011;10921;53.614;9.882;2023-08-17T07:51:58;42.70;;;35.90;;
21519;SDS011;10921;53.614;9.882;2023-08-17T07:54:25;39.42;;;35.60;;
21519;SDS011;10921;53.614;9.882;2023-08-17T07:56:52;40.50;;;36.17;;
21519;SDS011;10921;53.614;9.882;2023-08-17T07:59:18;39.53;;;35.47;;
21519;SDS011;10921;53.614;9.882;2023-08-17T08:01:45;43.40;;;36.70;;
21519;SDS011;10921;53.614;9.882;2023-08-17T08:04:11;40.03;;;35.95;;
21519;SDS011;10921;53.614;9.882;2023-08-17T08:06:38;40.33;;;36.10;;
21519;SDS011;10921;53.614;9.882;2023-08-17T08:09:04;39.47;;;35.38;;
21519;SDS011;10921;53.614;9.882;2023-08-17T08:11:31;39.33;;;35.40;;
21519;SDS011;10921;53.614;9.882;2023-08-17T08:13:57;40.47;;;36.47;;
21519;SDS011;10921;53.614;9.882;2023-08-17T08:16:24;40.90;;;36.88;;
21519;SDS011;10921;53.614;9.882;2023-08-17T08:18:51;40.80;;;36.60;;
21519;SDS011;10921;53.614;9.882;2023-08-17T08:21:17;39.80;;;35.95;;
21519;SDS011;10921;53.614;9.882;2023-08-17T08:23:44;40.50;;;36.30;;
21519;SDS011;10921;53.614;9.882;2023-08-17T08:26:10;41.10;;;36.88;;
21519;SDS011;10921;53.614;9.882;2023-08-17T08:28:37;40.20;;;36.08;;
21519;SDS011;10921;53.614;9.882;2023-08-17T08:31:03;41.20;;;36.78;;
21519;SDS011;10921;53.614;9.882;2023-08-17T08:33:30;42.75;;;36.65;;
21519;SDS011;10921;53.614;9.882;2023-08-17T08:35:57;40.13;;;35.95;;
21519;SDS011;10921;53.614;9.882;2023-08-17T08:38:24;41.25;;;36.83;;
21519;SDS011;10921;53.614;9.882;2023-08-17T08:40:50;40.92;;;36.67;;
21519;SDS011;10921;53.614;9.882;2023-08-17T08:43:17;40.03;;;36.13;;
21519;SDS011;10921;53.614;9.882;2023-08-17T08:45:44;39.78;;;35.72;;
21519;SDS011;10921;53.614;9.882;2023-08-17T08:48:12;39.28;;;35.35;;
21519;SDS011;10921;53.614;9.882;2023-08-17T08:50:42;37.67;;;33.97;;
21519;SDS011;10921;53.614;9.882;2023-08-17T08:53:15;37.60;;;33.67;;
21519;SDS011;10921;53.614;9.882;2023-08-17T08:55:49;37.75;;;33.90;;
21519;SDS011;10921;53.614;9.882;2023-08-17T08:58:25;38.38;;;34.58;;
21519;SDS011;10921;53.614;9.882;2023-08-17T09:00:52;38.85;;;34.80;;
21519;SDS011;10921;53.614;9.882;2023-08-17T09:03:19;39.17;;;34.97;;
21519;SDS011;10921;53.614;9.882;2023-08-17T09:05:47;38.20;;;34.38;;
21519;SDS011;10921;53.614;9.882;2023-08-17T09:08:18;39.13;;;35.00;;
21519;SDS011;10921;53.614;9.882;2023-08-17T09:10:48;38.05;;;34.50;;
21519;SDS011;10921;53.614;9.882;2023-08-17T09:13:15;39.60;;;35.55;;
21519;SDS011;10921;53.614;9.882;2023-08-17T09:15:42;38.17;;;34.13;;
21519;SDS011;10921;53.614;9.882;2023-08-17T09:18:09;38.80;;;34.60;;
21519;SDS011;10921;53.614;9.882;2023-08-17T09:20:40;38.00;;;34.20;;
21519;SDS011;10921;53.614;9.882;2023-08-17T09:23:16;37.35;;;33.63;;
21519;SDS011;10921;53.614;9.882;2023-08-17T09:25:48;39.13;;;34.75;;
21519;SDS011;10921;53.614;9.882;2023-08-17T09:28:18;38.05;;;34.00;;
21519;SDS011;10921;53.614;9.882;2023-08-17T09:30:49;37.17;;;33.33;;
21519;SDS011;10921;53.614;9.882;2023-08-17T09:33:19;37.45;;;33.15;;
21519;SDS011;10921;53.614;9.882;2023-08-17T09:35:47;36.70;;;32.85;;
21519;SDS011;10921;53.614;9.882;2023-08-17T09:38:14;37.03;;;33.33;;
21519;SDS011;10921;53.614;9.882;2023-08-17T09:40:41;38.83;;;32.97;;
21519;SDS011;10921;53.614;9.882;2023-08-17T09:43:08;37.13;;;33.10;;
21519;SDS011;10921;53.614;9.882;2023-08-17T09:45:39;36.42;;;33.00;;
21519;SDS011;10921;53.614;9.882;2023-08-17T09:48:06;37.30;;;33.58;;
21519;SDS011;10921;53.614;9.882;2023-08-17T09:50:36;38.10;;;34.08;;
21519;SDS011;10921;53.614;9.882;2023-08-17T09:53:04;40.53;;;33.25;;
21519;SDS011;10921;53.614;9.882;2023-08-17T09:55:31;37.22;;;33.25;;
21519;SDS011;10921;53.614;9.882;2023-08-17T09:58:00;37.50;;;33.97;;
21519;SDS011;10921;53.614;9.882;2023-08-17T10:00:28;37.00;;;33.22;;
21519;SDS011;10921;53.614;9.882;2023-08-17T10:02:56;36.40;;;33.10;;
21519;SDS011;10921;53.614;9.882;2023-08-17T10:05:35;37.30;;;33.58;;
21519;SDS011;10921;53.614;9.882;2023-08-17T10:08:04;37.05;;;33.55;;
21519;SDS011;10921;53.614;9.882;2023-08-17T10:10:34;36.80;;;33.08;;
21519;SDS011;10921;53.614;9.882;2023-08-17T10:13:09;36.80;;;33.33;;
21519;SDS011;10921;53.614;9.882;2023-08-17T10:15:37;39.05;;;33.47;;
21519;SDS011;10921;53.614;9.882;2023-08-17T10:21:01;36.00;;;32.63;;
21519;SDS011;10921;53.614;9.882;2023-08-17T10:23:31;35.47;;;32.08;;
21519;SDS011;10921;53.614;9.882;2023-08-17T10:26:00;34.75;;;31.55;;
21519;SDS011;10921;53.614;9.882;2023-08-17T10:28:30;34.08;;;31.08;;
21519;SDS011;10921;53.614;9.882;2023-08-17T10:30:57;33.90;;;30.77;;
21519;SDS011;10921;53.614;9.882;2023-08-17T10:33:24;33.00;;;30.30;;
21519;SDS011;10921;53.614;9.882;2023-08-17T10:35:51;33.42;;;30.30;;
21519;SDS011;10921;53.614;9.882;2023-08-17T10:38:18;33.20;;;30.15;;
21519;SDS011;10921;53.614;9.882;2023-08-17T10:40:45;33.97;;;31.08;;
21519;SDS011;10921;53.614;9.882;2023-08-17T10:43:52;33.75;;;30.95;;
21519;SDS011;10921;53.614;9.882;2023-08-17T10:46:19;33.97;;;30.98;;
21519;SDS011;10921;53.614;9.882;2023-08-17T10:48:46;35.03;;;31.88;;
21519;SDS011;10921;53.614;9.882;2023-08-17T10:51:13;34.15;;;31.25;;
21519;SDS011;10921;53.614;9.882;2023-08-17T10:53:42;34.55;;;31.75;;
21519;SDS011;10921;53.614;9.882;2023-08-17T10:56:13;35.58;;;32.55;;
21519;SDS011;10921;53.614;9.882;2023-08-17T10:58:42;34.63;;;31.27;;
21519;SDS011;10921;53.614;9.882;2023-08-17T11:01:09;38.17;;;35.08;;
21519;SDS011;10921;53.614;9.882;2023-08-17T11:03:37;38.03;;;34.78;;
21519;SDS011;10921;53.614;9.882;2023-08-17T11:06:16;34.10;;;31.10;;
21519;SDS011;10921;53.614;9.882;2023-08-17T11:08:53;34.50;;;31.48;;
21519;SDS011;10921;53.614;9.882;2023-08-17T11:11:22;34.75;;;31.75;;
21519;SDS011;10921;53.614;9.882;2023-08-17T11:13:49;33.80;;;31.02;;
21519;SDS011;10921;53.614;9.882;2023-08-17T11:16:22;35.15;;;32.15;;
21519;SDS011;10921;53.614;9.882;2023-08-17T11:18:49;35.05;;;31.83;;
21519;SDS011;10921;53.614;9.882;2023-08-17T11:21:17;35.55;;;32.35;;
21519;SDS011;10921;53.614;9.882;2023-08-17T11:23:45;35.28;;;32.13;;
21519;SDS011;10921;53.614;9.882;2023-08-17T11:26:15;35.40;;;32.15;;
21519;SDS011;10921;53.614;9.882;2023-08-17T11:28:44;34.50;;;31.52;;
21519;SDS011;10921;53.614;9.882;2023-08-17T11:31:13;34.80;;;31.70;;
21519;SDS011;10921;53.614;9.882;2023-08-17T11:36:09;36.38;;;32.70;;
21519;SDS011;10921;53.614;9.882;2023-08-17T11:38:37;35.17;;;31.98;;
21519;SDS011;10921;53.614;9.882;2023-08-17T11:41:08;35.92;;;32.47;;
21519;SDS011;10921;53.614;9.882;2023-08-17T11:43:35;36.85;;;33.47;;
21519;SDS011;10921;53.614;9.882;2023-08-17T11:46:03;37.28;;;33.55;;
21519;SDS011;10921;53.614;9.882;2023-08-17T11:48:31;36.47;;;32.95;;
21519;SDS011;10921;53.614;9.882;2023-08-17T11:51:01;37.50;;;33.88;;
21519;SDS011;10921;53.614;9.882;2023-08-17T11:53:37;36.55;;;32.97;;
21519;SDS011;10921;53.614;9.882;2023-08-17T11:56:06;37.38;;;33.75;;
21519;SDS011;10921;53.614;9.882;2023-08-17T11:58:42;36.15;;;32.85;;
21519;SDS011;10921;53.614;9.882;2023-08-17T12:01:11;36.65;;;33.10;;
21519;SDS011;10921;53.614;9.882;2023-08-17T12:03:39;37.45;;;34.00;;
21519;SDS011;10921;53.614;9.882;2023-08-17T12:06:07;37.78;;;33.92;;
21519;SDS011;10921;53.614;9.882;2023-08-17T12:08:35;38.42;;;34.58;;
21519;SDS011;10921;53.614;9.882;2023-08-17T12:11:04;36.83;;;33.58;;
21519;SDS011;10921;53.614;9.882;2023-08-17T12:13:35;38.80;;;34.80;;
21519;SDS011;10921;53.614;9.882;2023-08-17T12:16:02;37.92;;;34.42;;
21519;SDS011;10921;53.614;9.882;2023-08-17T12:18:33;39.03;;;34.78;;
21519;SDS011;10921;53.614;9.882;2023-08-17T12:21:00;37.42;;;33.78;;
21519;SDS011;10921;53.614;9.882;2023-08-17T12:23:27;35.88;;;32.50;;
21519;SDS011;10921;53.614;9.882;2023-08-17T12:25:54;35.78;;;32.35;;
21519;SDS011;10921;53.614;9.882;2023-08-17T12:28:22;36.92;;;33.58;;
21519;SDS011;10921;53.614;9.882;2023-08-17T12:30:59;36.25;;;32.75;;
21519;SDS011;10921;53.614;9.882;2023-08-17T12:33:27;36.85;;;33.35;;
21519;SDS011;10921;53.614;9.882;2023-08-17T12:35:54;36.85;;;33.55;;
21519;SDS011;10921;53.614;9.882;2023-08-17T12:38:22;36.35;;;33.03;;
21519;SDS011;10921;53.614;9.882;2023-08-17T12:40:50;37.40;;;33.92;;
21519;SDS011;10921;53.614;9.882;2023-08-17T12:43:16;36.60;;;33.28;;
21519;SDS011;10921;53.614;9.882;2023-08-17T12:45:43;37.17;;;33.53;;
21519;SDS011;10921;53.614;9.882;2023-08-17T12:48:09;37.15;;;33.55;;
21519;SDS011;10921;53.614;9.882;2023-08-17T12:50:36;36.03;;;32.60;;
21519;SDS011;10921;53.614;9.882;2023-08-17T12:53:08;35.90;;;32.20;;
21519;SDS011;10921;53.614;9.882;2023-08-17T12:55:35;35.88;;;32.47;;
21519;SDS011;10921;53.614;9.882;2023-08-17T12:58:02;36.35;;;32.90;;
21519;SDS011;10921;53.614;9.882;2023-08-17T13:00:29;37.10;;;33.45;;
21519;SDS011;10921;53.614;9.882;2023-08-17T13:02:55;36.58;;;32.95;;
21519;SDS011;10921;53.614;9.882;2023-08-17T13:05:22;35.45;;;32.15;;
21519;SDS011;10921;53.614;9.882;2023-08-17T13:07:49;36.08;;;32.60;;
21519;SDS011;10921;53.614;9.882;2023-08-17T13:10:16;36.28;;;32.75;;
21519;SDS011;10921;53.614;9.882;2023-08-17T13:12:42;36.50;;;33.00;;
21519;SDS011;10921;53.614;9.882;2023-08-17T13:15:09;37.67;;;33.85;;
21519;SDS011;10921;53.614;9.882;2023-08-17T13:17:35;36.17;;;32.67;;
21519;SDS011;10921;53.614;9.882;2023-08-17T13:20:02;36.83;;;33.38;;
21519;SDS011;10921;53.614;9.882;2023-08-17T13:22:30;37.33;;;33.63;;
21519;SDS011;10921;53.614;9.882;2023-08-17T13:24:56;36.28;;;32.78;;
21519;SDS011;10921;53.614;9.882;2023-08-17T13:27:23;35.65;;;32.25;;
21519;SDS011;10921;53.614;9.882;2023-08-17T13:29:49;36.70;;;33.10;;
21519;SDS011;10921;53.614;9.882;2023-08-17T13:32:16;35.75;;;32.15;;
21519;SDS011;10921;53.614;9.882;2023-08-17T13:34:42;37.33;;;33.83;;
21519;SDS011;10921;53.614;9.882;2023-08-17T13:37:09;36.38;;;32.58;;
21519;SDS011;10921;53.614;9.882;2023-08-17T13:39:35;36.45;;;32.90;;
21519;SDS011;10921;53.614;9.882;2023-08-17T13:42:01;36.22;;;32.42;;
21519;SDS011;10921;53.614;9.882;2023-08-17T13:44:28;36.08;;;32.60;;
21519;SDS011;10921;53.614;9.882;2023-08-17T13:46:55;35.65;;;32.28;;
21519;SDS011;10921;53.614;9.882;2023-08-17T13:49:21;34.45;;;31.25;;
21519;SDS011;10921;53.614;9.882;2023-08-17T13:51:47;33.83;;;30.83;;
21519;SDS011;10921;53.614;9.882;2023-08-17T13:54:14;33.97;;;30.73;;
21519;SDS011;10921;53.614;9.882;2023-08-17T13:56:40;34.90;;;30.65;;
21519;SDS011;10921;53.614;9.882;2023-08-17T13:59:07;36.38;;;30.92;;
21519;SDS011;10921;53.614;9.882;2023-08-17T14:01:34;33.58;;;30.45;;
21519;SDS011;10921;53.614;9.882;2023-08-17T14:04:01;33.92;;;30.42;;
21519;SDS011;10921;53.614;9.882;2023-08-17T14:06:29;32.58;;;29.55;;
21519;SDS011;10921;53.614;9.882;2023-08-17T14:08:56;31.80;;;28.95;;
21519;SDS011;10921;53.614;9.882;2023-08-17T14:11:24;32.08;;;29.20;;
21519;SDS011;10921;53.614;9.882;2023-08-17T14:13:50;31.75;;;29.05;;
21519;SDS011;10921;53.614;9.882;2023-08-17T14:16:17;33.20;;;30.20;;
21519;SDS011;10921;53.614;9.882;2023-08-17T14:18:43;33.42;;;30.38;;
21519;SDS011;10921;53.614;9.882;2023-08-17T14:21:10;34.67;;;30.95;;
21519;SDS011;10921;53.614;9.882;2023-08-17T14:23:37;34.60;;;30.85;;
21519;SDS011;10921;53.614;9.882;2023-08-17T14:26:04;34.65;;;30.90;;
21519;SDS011;10921;53.614;9.882;2023-08-17T14:28:31;37.42;;;31.85;;
21519;SDS011;10921;53.614;9.882;2023-08-17T14:30:58;34.55;;;30.98;;